createdAt,value
2023-04-25T00:00:24.224Z,10.01
2023-04-25T00:02:53.526Z,10.04
2023-04-25T00:05:21.621Z,10.02
2023-04-25T00:07:49.534Z,10.03
2023-04-25T00:10:17.565Z,10.02
2023-04-25T00:12:45.339Z,10.01
2023-04-25T00:15:13.846Z,9.94
2023-04-25T00:17:41.701Z,9.96
2023-04-25T00:20:12.374Z,10.01
2023-04-25T00:22:40.085Z,10.04
2023-04-25T00:25:08.960Z,10.09
2023-04-25T00:27:36.590Z,10.12
2023-04-25T00:30:04.670Z,10.16
2023-04-25T00:32:32.372Z,10.17
2023-04-25T00:35:00.163Z,10.22
2023-04-25T00:37:29.193Z,10.27
2023-04-25T00:39:57.038Z,10.27
2023-04-25T00:42:24.675Z,10.28
2023-04-25T00:44:53.639Z,10.24
2023-04-25T00:47:21.619Z,10.22
2023-04-25T00:49:49.370Z,10.24
2023-04-25T00:52:17.158Z,10.23
2023-04-25T00:54:46.241Z,10.17
2023-04-25T00:57:14.052Z,10.16
2023-04-25T00:59:47.185Z,10.10
2023-04-25T01:02:15.085Z,10.09
2023-04-25T01:04:42.803Z,10.08
2023-04-25T01:07:11.710Z,10.09
2023-04-25T01:09:39.644Z,10.06
2023-04-25T01:12:08.986Z,10.00
2023-04-25T01:14:36.752Z,10.00
2023-04-25T01:17:04.718Z,10.02
2023-04-25T01:19:32.778Z,10.04
2023-04-25T01:22:01.915Z,10.05
2023-04-25T01:24:29.774Z,10.07
2023-04-25T01:26:58.048Z,10.08
2023-04-25T01:29:26.012Z,10.06
2023-04-25T01:31:54.615Z,10.04
2023-04-25T01:34:22.524Z,10.03
2023-04-25T01:36:51.563Z,10.02
2023-04-25T01:39:21.188Z,10.00
2023-04-25T01:41:49.903Z,9.98
2023-04-25T01:44:17.699Z,9.97
2023-04-25T01:46:45.415Z,9.97
2023-04-25T01:49:13.347Z,9.94
2023-04-25T01:51:41.091Z,9.95
2023-04-25T01:54:09.744Z,9.92
2023-04-25T01:56:41.247Z,9.89
2023-04-25T01:59:09.627Z,9.85
2023-04-25T02:01:37.419Z,9.83
2023-04-25T02:04:05.491Z,9.82
2023-04-25T02:06:33.305Z,9.82
2023-04-25T02:09:01.004Z,9.82
2023-04-25T02:11:28.749Z,9.81
2023-04-25T02:13:57.731Z,9.81
2023-04-25T02:16:26.295Z,9.77
2023-04-25T02:18:55.019Z,9.80
2023-04-25T02:21:22.707Z,9.80
2023-04-25T02:23:53.189Z,9.83
2023-04-25T02:26:22.028Z,9.79
2023-04-25T02:28:50.159Z,9.76
2023-04-25T02:31:19.275Z,9.79
2023-04-25T02:33:47.077Z,9.81
2023-04-25T02:36:14.704Z,9.80
2023-04-25T02:38:42.524Z,9.82
2023-04-25T02:41:10.646Z,9.88
2023-04-25T02:43:38.343Z,9.91
2023-04-25T02:46:06.180Z,9.92
2023-04-25T02:48:35.235Z,9.93
2023-04-25T02:51:02.984Z,9.96
2023-04-25T02:53:30.699Z,9.92
2023-04-25T02:56:00.071Z,9.85
2023-04-25T02:58:27.851Z,9.84
2023-04-25T03:00:56.171Z,9.79
2023-04-25T03:03:24.056Z,9.75
2023-04-25T03:05:54.002Z,9.75
2023-04-25T03:08:21.817Z,9.70
2023-04-25T03:10:51.121Z,9.68
2023-04-25T03:13:18.780Z,9.70
2023-04-25T03:15:46.434Z,9.72
2023-04-25T03:18:14.094Z,9.67
2023-04-25T03:20:42.751Z,9.63
2023-04-25T03:23:11.833Z,9.64
2023-04-25T03:25:39.510Z,9.60
2023-04-25T03:28:07.219Z,9.56
2023-04-25T03:30:35.116Z,9.54
2023-04-25T03:33:02.874Z,9.49
2023-04-25T03:35:30.622Z,9.45
2023-04-25T03:37:58.256Z,9.49
2023-04-25T03:40:27.320Z,9.49
2023-04-25T03:42:54.997Z,9.50
2023-04-25T03:45:22.747Z,9.51
2023-04-25T03:47:50.867Z,9.50
2023-04-25T03:50:18.715Z,9.49
2023-04-25T03:52:46.350Z,9.50
2023-04-25T03:55:14.067Z,9.49
2023-04-25T03:57:43.098Z,9.50
2023-04-25T04:00:11.776Z,9.52
2023-04-25T04:02:40.622Z,9.51
2023-04-25T04:05:10.369Z,9.50
2023-04-25T04:07:40.784Z,9.50
2023-04-25T04:10:09.092Z,9.51
2023-04-25T04:12:36.684Z,9.52
2023-04-25T04:15:06.851Z,9.54
2023-04-25T04:17:34.834Z,9.53
2023-04-25T04:20:02.583Z,9.56
2023-04-25T04:22:30.359Z,9.55
2023-04-25T04:24:58.578Z,9.54
2023-04-25T04:27:26.264Z,9.53
2023-04-25T04:29:54.366Z,9.53
2023-04-25T04:32:24.300Z,9.53
2023-04-25T04:34:53.211Z,9.51
2023-04-25T04:37:21.025Z,9.48
2023-04-25T04:39:48.643Z,9.48
2023-04-25T04:42:16.647Z,9.48
2023-04-25T04:44:45.588Z,9.50
2023-04-25T04:47:15.054Z,9.45
2023-04-25T04:49:44.040Z,9.42
2023-04-25T04:52:11.731Z,9.40
2023-04-25T04:54:39.425Z,9.34
2023-04-25T04:57:07.069Z,9.32
2023-04-25T04:59:34.888Z,9.30
2023-04-25T05:02:02.599Z,9.33
2023-04-25T05:04:30.415Z,9.30
2023-04-25T05:06:59.503Z,9.33
2023-04-25T05:09:27.415Z,9.35
2023-04-25T05:11:55.145Z,9.30
2023-04-25T05:14:23.746Z,9.33
2023-04-25T05:16:51.648Z,9.36
2023-04-25T05:19:19.368Z,9.39
2023-04-25T05:21:47.026Z,9.41
2023-04-25T05:24:16.057Z,9.42
2023-04-25T05:26:43.852Z,9.45
2023-04-25T05:29:11.514Z,9.45
2023-04-25T05:31:39.261Z,9.47
2023-04-25T05:34:07.099Z,9.45
2023-04-25T05:36:34.807Z,9.47
2023-04-25T05:39:02.955Z,9.49
2023-04-25T05:41:32.038Z,9.54
2023-04-25T05:44:00.074Z,9.55
2023-04-25T05:46:28.225Z,9.59
2023-04-25T05:48:56.170Z,9.56
2023-04-25T05:51:23.981Z,9.57
2023-04-25T05:53:52.032Z,9.55
2023-04-25T05:56:19.957Z,9.52
2023-04-25T05:58:49.102Z,9.57
2023-04-25T06:01:16.944Z,9.57
2023-04-25T06:03:44.961Z,9.55
2023-04-25T06:06:13.411Z,9.54
2023-04-25T06:08:42.442Z,9.60
2023-04-25T06:11:10.169Z,9.63
2023-04-25T06:13:37.871Z,9.62
2023-04-25T06:16:09.491Z,9.67
2023-04-25T06:18:37.229Z,9.65
2023-04-25T06:21:05.258Z,9.69
2023-04-25T06:23:33.007Z,9.66
2023-04-25T06:26:00.735Z,9.64
2023-04-25T06:28:28.823Z,9.65
2023-04-25T06:30:56.585Z,9.64
2023-04-25T06:33:25.848Z,9.67
2023-04-25T06:35:53.788Z,9.64
2023-04-25T06:38:21.589Z,9.63
2023-04-25T06:40:49.260Z,9.64
2023-04-25T06:43:17.017Z,9.65
2023-04-25T06:45:46.371Z,9.60
2023-04-25T06:48:16.601Z,9.56
2023-04-25T06:50:45.801Z,9.60
2023-04-25T06:53:13.606Z,9.57
2023-04-25T06:55:41.406Z,9.58
2023-04-25T06:58:09.254Z,9.63
2023-04-25T07:00:37.165Z,9.58
2023-04-25T07:03:05.085Z,9.62
2023-04-25T07:05:32.840Z,9.66
2023-04-25T07:08:02.747Z,9.55
2023-04-25T07:10:30.578Z,9.46
2023-04-25T07:12:58.246Z,9.41
2023-04-25T07:15:25.866Z,9.41
2023-04-25T07:17:53.690Z,9.41
2023-04-25T07:20:21.811Z,9.34
2023-04-25T07:22:49.462Z,9.39
2023-04-25T07:25:18.907Z,9.38
2023-04-25T07:27:46.594Z,9.31
2023-04-25T07:30:14.831Z,9.36
2023-04-25T07:32:42.646Z,9.37
2023-04-25T07:35:10.961Z,9.43
2023-04-25T07:37:38.762Z,9.48
2023-04-25T07:40:08.803Z,9.41
2023-04-25T07:42:37.907Z,9.48
2023-04-25T07:45:06.356Z,9.51
2023-04-25T07:47:34.056Z,9.52
2023-04-25T07:50:01.887Z,9.52
2023-04-25T07:52:29.692Z,9.59
2023-04-25T07:54:57.628Z,9.71
2023-04-25T07:57:27.219Z,9.80
2023-04-25T07:59:56.236Z,9.84
2023-04-25T08:02:23.963Z,9.95
2023-04-25T08:04:51.996Z,10.07
2023-04-25T08:07:20.702Z,10.25
2023-04-25T08:09:48.353Z,10.40
2023-04-25T08:12:16.119Z,10.49
2023-04-25T08:14:43.749Z,10.52
2023-04-25T08:17:13.050Z,10.61
2023-04-25T08:19:41.104Z,10.61
2023-04-25T08:22:08.853Z,10.58
2023-04-25T08:24:38.783Z,10.62
2023-04-25T08:27:07.650Z,10.64
2023-04-25T08:29:35.842Z,10.69
2023-04-25T08:32:03.534Z,10.62
2023-04-25T08:34:32.611Z,10.70
2023-04-25T08:37:00.587Z,10.68
2023-04-25T08:39:28.410Z,10.65
2023-04-25T08:41:56.428Z,10.71
2023-04-25T08:44:24.566Z,10.77
2023-04-25T08:46:54.209Z,10.85
2023-04-25T08:49:21.916Z,10.99
2023-04-25T08:51:52.668Z,11.12
2023-04-25T08:54:35.326Z,11.18
2023-04-25T08:57:06.300Z,11.34
2023-04-25T08:59:36.641Z,11.36
2023-04-25T09:02:05.777Z,11.55
2023-04-25T09:04:33.594Z,11.65
2023-04-25T09:07:02.701Z,11.65
2023-04-25T09:09:31.824Z,11.69
2023-04-25T09:12:00.682Z,12.10
2023-04-25T09:14:29.468Z,12.51
2023-04-25T09:17:02.040Z,12.70
2023-04-25T09:22:04.718Z,12.83
2023-04-25T09:24:37.214Z,12.68
2023-04-25T09:27:09.059Z,12.52
2023-04-25T09:29:38.771Z,12.59
2023-04-25T09:32:14.977Z,12.72
2023-04-25T09:34:43.866Z,12.75
2023-04-25T09:37:13.577Z,12.86
2023-04-25T09:39:41.585Z,12.84
2023-04-25T09:42:11.575Z,12.72
2023-04-25T09:44:43.747Z,12.83
2023-04-25T09:47:12.169Z,12.94
2023-04-25T09:49:42.898Z,12.93
2023-04-25T09:52:11.505Z,12.93
2023-04-25T09:54:40.682Z,12.93
2023-04-25T09:57:13.686Z,13.01
2023-04-25T09:59:45.946Z,12.99
2023-04-25T10:02:15.010Z,12.88
2023-04-25T10:04:43.644Z,12.82
2023-04-25T10:07:12.682Z,12.78
2023-04-25T10:09:42.702Z,12.63
2023-04-25T10:12:10.660Z,12.47
2023-04-25T10:14:38.314Z,12.46
2023-04-25T10:17:06.059Z,12.55
2023-04-25T10:19:34.442Z,12.43
2023-04-25T10:22:09.846Z,12.50
2023-04-25T10:24:38.375Z,12.43
2023-04-25T10:27:08.117Z,12.48
2023-04-25T10:29:37.259Z,12.54
2023-04-25T10:32:05.640Z,12.52
2023-04-25T10:34:41.854Z,12.66
2023-04-25T10:37:12.457Z,12.72
2023-04-25T10:39:42.457Z,12.77
2023-04-25T10:42:11.562Z,12.73
2023-04-25T10:44:40.291Z,12.78
2023-04-25T10:47:10.640Z,12.82
2023-04-25T10:49:40.241Z,12.76
2023-04-25T10:52:19.854Z,12.83
2023-04-25T10:54:53.523Z,12.71
2023-04-25T10:57:34.356Z,12.65
2023-04-25T11:00:06.222Z,12.68
2023-04-25T11:02:34.390Z,12.77
2023-04-25T11:05:02.466Z,12.70
2023-04-25T11:07:37.499Z,12.70
2023-04-25T11:10:06.111Z,12.81
2023-04-25T11:12:35.590Z,12.87
2023-04-25T11:15:05.172Z,12.84
2023-04-25T11:17:34.187Z,12.91
2023-04-25T11:20:02.483Z,12.95
2023-04-25T11:22:30.882Z,13.01
2023-04-25T11:24:58.626Z,13.05
2023-04-25T11:27:26.787Z,12.97
2023-04-25T11:29:55.884Z,12.85
2023-04-25T11:32:24.724Z,12.84
2023-04-25T11:34:54.646Z,12.90
2023-04-25T11:37:22.557Z,12.88
2023-04-25T11:39:50.333Z,12.80
2023-04-25T11:42:18.234Z,13.00
2023-04-25T11:44:45.982Z,12.95
2023-04-25T11:47:15.111Z,12.86
2023-04-25T11:49:42.812Z,12.87
2023-04-25T11:52:10.701Z,12.97
2023-04-25T11:54:38.861Z,13.02
2023-04-25T11:57:06.704Z,12.99
2023-04-25T11:59:34.522Z,12.96
2023-04-25T12:02:02.806Z,13.02
2023-04-25T12:04:33.484Z,13.00
2023-04-25T12:07:02.706Z,12.94
2023-04-25T12:09:32.268Z,12.90
2023-04-25T12:12:03.721Z,12.93
2023-04-25T12:14:33.385Z,13.00
2023-04-25T12:17:03.478Z,12.87
2023-04-25T12:19:36.720Z,12.85
2023-04-25T12:22:05.294Z,12.79
2023-04-25T12:24:39.130Z,12.91
2023-04-25T12:27:09.431Z,12.88
2023-04-25T12:29:49.455Z,12.89
2023-04-25T12:32:18.175Z,12.93
2023-04-25T12:34:47.412Z,13.11
2023-04-25T12:37:16.091Z,13.21
2023-04-25T12:39:44.128Z,13.24
2023-04-25T12:42:13.115Z,13.38
2023-04-25T12:44:41.626Z,13.40
2023-04-25T12:47:09.570Z,13.28
2023-04-25T12:49:38.502Z,13.32
2023-04-25T12:52:07.719Z,13.39
2023-04-25T12:54:36.376Z,13.35
2023-04-25T12:57:04.567Z,13.22
2023-04-25T12:59:32.373Z,13.24
2023-04-25T13:02:00.446Z,13.23
2023-04-25T13:04:28.790Z,13.17
2023-04-25T13:06:56.963Z,13.12
2023-04-25T13:09:26.281Z,13.09
2023-04-25T13:11:56.289Z,13.11
2023-04-25T13:14:26.239Z,13.10
2023-04-25T13:16:54.164Z,13.13
2023-04-25T13:19:22.196Z,13.15
2023-04-25T13:21:50.129Z,13.17
2023-04-25T13:24:17.967Z,13.11
2023-04-25T13:26:47.246Z,12.97
2023-04-25T13:29:15.023Z,12.85
2023-04-25T13:31:42.810Z,12.89
2023-04-25T13:34:11.377Z,12.89
2023-04-25T13:36:39.137Z,12.99
2023-04-25T13:39:07.015Z,12.95
2023-04-25T13:41:34.912Z,13.01
2023-04-25T13:44:04.116Z,13.01
2023-04-25T13:46:45.419Z,13.08
2023-04-25T13:49:14.560Z,13.14
2023-04-25T13:51:43.206Z,13.14
2023-04-25T13:54:11.005Z,13.12
2023-04-25T13:56:39.602Z,13.12
2023-04-25T13:59:08.704Z,13.08
2023-04-25T14:01:37.152Z,13.10
2023-04-25T14:04:06.202Z,13.02
2023-04-25T14:06:34.583Z,12.98
2023-04-25T14:09:02.690Z,12.93
2023-04-25T14:11:30.685Z,12.86
2023-04-25T14:13:58.472Z,12.86
2023-04-25T14:16:27.620Z,12.80
2023-04-25T14:18:55.785Z,12.70
2023-04-25T14:21:23.682Z,12.67
2023-04-25T14:23:51.717Z,12.72
2023-04-25T14:26:19.766Z,12.64
2023-04-25T14:28:47.408Z,12.54
2023-04-25T14:31:15.193Z,12.50
2023-04-25T14:33:44.434Z,12.52
2023-04-25T14:36:12.277Z,12.49
2023-04-25T14:38:39.969Z,12.54
2023-04-25T14:41:07.749Z,12.57
2023-04-25T14:43:35.411Z,12.63
2023-04-25T14:46:03.215Z,12.69
2023-04-25T14:48:31.255Z,12.86
2023-04-25T14:51:01.589Z,12.97
2023-04-25T14:53:29.496Z,13.12
2023-04-25T14:55:57.627Z,13.30
2023-04-25T14:58:25.471Z,13.58
2023-04-25T15:00:53.575Z,13.80
2023-04-25T15:03:21.583Z,13.92
2023-04-25T15:05:49.342Z,13.94
2023-04-25T15:08:19.150Z,13.85
2023-04-25T15:10:48.133Z,13.78
2023-04-25T15:13:16.401Z,13.71
2023-04-25T15:15:44.204Z,13.70
2023-04-25T15:18:12.168Z,13.68
2023-04-25T15:20:40.022Z,13.63
2023-04-25T15:23:07.820Z,13.66
2023-04-25T15:25:36.822Z,13.53
2023-04-25T15:28:04.796Z,13.48
2023-04-25T15:30:32.603Z,13.44
2023-04-25T15:33:00.391Z,13.39
2023-04-25T15:35:28.305Z,13.33
2023-04-25T15:37:56.000Z,13.25
2023-04-25T15:40:23.888Z,13.22
2023-04-25T15:42:53.721Z,13.21
2023-04-25T15:45:24.265Z,13.13
2023-04-25T15:47:52.826Z,13.03
2023-04-25T15:50:21.156Z,12.89
2023-04-25T15:52:50.250Z,12.82
2023-04-25T15:55:18.530Z,12.88
2023-04-25T15:57:46.489Z,12.83
2023-04-25T16:00:17.592Z,12.72
2023-04-25T16:02:47.028Z,12.64
2023-04-25T16:05:15.757Z,12.64
2023-04-25T16:07:44.984Z,12.61
2023-04-25T16:10:13.742Z,12.57
2023-04-25T16:12:41.755Z,12.61
2023-04-25T16:15:10.200Z,12.54
2023-04-25T16:17:39.357Z,12.44
2023-04-25T16:20:10.313Z,12.51
2023-04-25T16:22:39.659Z,12.36
2023-04-25T16:25:08.225Z,12.43
2023-04-25T16:27:37.909Z,12.38
2023-04-25T16:30:08.090Z,12.28
2023-04-25T16:32:36.160Z,12.26
2023-04-25T16:35:07.714Z,12.22
2023-04-25T16:37:35.446Z,12.16
2023-04-25T16:40:03.314Z,12.20
2023-04-25T16:42:31.013Z,12.17
2023-04-25T16:44:58.797Z,12.14
2023-04-25T16:47:26.511Z,12.18
2023-04-25T16:49:54.316Z,12.13
2023-04-25T16:52:23.899Z,12.09
2023-04-25T16:54:51.821Z,12.06
2023-04-25T16:57:19.516Z,11.99
2023-04-25T16:59:47.214Z,11.95
2023-04-25T17:02:16.145Z,11.91
2023-04-25T17:04:43.914Z,11.93
2023-04-25T17:07:11.868Z,11.82
2023-04-25T17:09:40.966Z,11.79
2023-04-25T17:12:09.119Z,11.71
2023-04-25T17:14:37.193Z,11.72
2023-04-25T17:17:05.204Z,11.71
2023-04-25T17:19:33.057Z,11.68
2023-04-25T17:22:00.749Z,11.63
2023-04-25T17:24:28.544Z,11.62
2023-04-25T17:26:57.613Z,11.60
2023-04-25T17:29:26.816Z,11.61
2023-04-25T17:31:54.614Z,11.57
2023-04-25T17:34:22.347Z,11.55
2023-04-25T17:36:50.145Z,11.55
2023-04-25T17:39:18.022Z,11.54
2023-04-25T17:41:45.848Z,11.49
2023-04-25T17:44:15.016Z,11.49
2023-04-25T17:46:42.792Z,11.48
2023-04-25T17:49:11.666Z,11.43
2023-04-25T17:51:39.473Z,11.36
2023-04-25T17:54:08.233Z,11.34
2023-04-25T17:56:38.661Z,11.33
2023-04-25T17:59:06.401Z,11.33
2023-04-25T18:01:35.972Z,11.25
2023-04-25T18:04:05.362Z,11.23
2023-04-25T18:06:33.829Z,11.23
2023-04-25T18:09:02.500Z,11.15
2023-04-25T18:11:30.920Z,11.11
2023-04-25T18:13:58.786Z,11.15
2023-04-25T18:16:26.745Z,11.16
2023-04-25T18:19:05.146Z,11.14
2023-04-25T18:21:32.969Z,11.16
2023-04-25T18:24:01.223Z,11.16
2023-04-25T18:26:31.208Z,11.12
2023-04-25T18:28:59.120Z,11.09
2023-04-25T18:31:26.949Z,11.07
2023-04-25T18:33:56.162Z,11.02
2023-04-25T18:36:23.918Z,11.00
2023-04-25T18:38:56.237Z,10.96
2023-04-25T18:41:51.136Z,10.92
2023-04-25T18:44:13.767Z,10.86
2023-04-25T18:46:43.636Z,10.77
2023-04-25T18:49:13.149Z,10.74
2023-04-25T18:51:41.576Z,10.68
2023-04-25T18:54:11.071Z,10.64
2023-04-25T18:56:38.822Z,10.58
2023-04-25T18:59:06.689Z,10.54
2023-04-25T19:01:34.873Z,10.45
2023-04-25T19:04:05.232Z,10.44
2023-04-25T19:06:35.581Z,10.42
2023-04-25T19:09:03.792Z,10.41
2023-04-25T19:11:31.561Z,10.36
2023-04-25T19:14:01.069Z,10.33
2023-04-25T19:16:28.811Z,10.32
2023-04-25T19:18:58.449Z,10.32
2023-04-25T19:21:27.221Z,10.33
2023-04-25T19:23:57.004Z,10.26
2023-04-25T19:26:25.231Z,10.23
2023-04-25T19:29:05.736Z,10.18
2023-04-25T19:31:34.635Z,10.13
2023-04-25T19:34:02.443Z,10.11
2023-04-25T19:36:30.205Z,10.05
2023-04-25T19:39:02.796Z,10.03
2023-04-25T19:41:31.611Z,10.02
2023-04-25T19:44:00.890Z,9.99
2023-04-25T19:46:28.730Z,9.97
2023-04-25T19:48:56.554Z,9.93
2023-04-25T19:51:24.477Z,9.89
2023-04-25T19:53:54.422Z,9.91
2023-04-25T19:56:24.494Z,9.87
2023-04-25T19:58:52.728Z,9.87
2023-04-25T20:01:22.271Z,9.85
2023-04-25T20:03:51.795Z,9.84
2023-04-25T20:06:20.149Z,9.83
2023-04-25T20:08:48.143Z,9.81
2023-04-25T20:11:16.128Z,9.81
2023-04-25T20:13:45.449Z,9.80
2023-04-25T20:16:13.593Z,9.79
2023-04-25T20:18:41.610Z,9.78
2023-04-25T20:21:09.522Z,9.74
2023-04-25T20:23:37.483Z,9.66
2023-04-25T20:26:05.259Z,9.59
2023-04-25T20:28:33.158Z,9.60
2023-04-25T20:31:02.508Z,9.59
2023-04-25T20:33:30.293Z,9.59
2023-04-25T20:35:58.498Z,9.58
2023-04-25T20:38:26.745Z,9.54
2023-04-25T20:40:56.363Z,9.50
2023-04-25T20:43:25.866Z,9.49
2023-04-25T20:45:54.883Z,9.45
2023-04-25T20:48:24.297Z,9.44
2023-04-25T20:50:52.121Z,9.37
2023-04-25T20:53:19.874Z,9.33
2023-04-25T20:55:48.134Z,9.32
2023-04-25T20:58:16.178Z,9.29
2023-04-25T21:00:44.047Z,9.26
2023-04-25T21:03:13.074Z,9.26
2023-04-25T21:05:42.456Z,9.25
2023-04-25T21:08:10.277Z,9.24
2023-04-25T21:10:38.083Z,9.20
2023-04-25T21:13:06.094Z,9.24
2023-04-25T21:15:33.905Z,9.24
2023-04-25T21:18:01.717Z,9.23
2023-04-25T21:20:29.462Z,9.22
2023-04-25T21:22:58.413Z,9.23
2023-04-25T21:25:31.015Z,9.18
2023-04-25T21:27:59.295Z,9.14
2023-04-25T21:30:27.381Z,9.09
2023-04-25T21:32:56.184Z,9.04
2023-04-25T21:35:24.341Z,8.97
2023-04-25T21:37:52.520Z,8.92
2023-04-25T21:40:22.028Z,8.88
2023-04-25T21:42:52.630Z,8.84
2023-04-25T21:45:20.842Z,8.76
2023-04-25T21:47:48.896Z,8.69
2023-04-25T21:50:16.810Z,8.61
2023-04-25T21:52:44.353Z,8.53
2023-04-25T21:55:12.315Z,8.46
2023-04-25T21:57:41.336Z,8.40
2023-04-25T22:00:20.673Z,8.34
2023-04-25T22:02:48.621Z,8.30
2023-04-25T22:05:16.650Z,8.23
2023-04-25T22:07:44.487Z,8.16
2023-04-25T22:10:12.281Z,8.09
2023-04-25T22:12:41.360Z,8.04
2023-04-25T22:15:10.588Z,8.03
2023-04-25T22:17:38.825Z,8.01
2023-04-25T22:20:10.469Z,7.99
2023-04-25T22:22:38.089Z,7.95
2023-04-25T22:25:07.390Z,7.92
2023-04-25T22:27:35.242Z,7.94
2023-04-25T22:30:04.677Z,7.92
2023-04-25T22:32:32.689Z,7.88
2023-04-25T22:35:00.275Z,7.87
2023-04-25T22:37:28.789Z,7.83
2023-04-25T22:39:56.383Z,7.81
2023-04-25T22:42:24.199Z,7.77
2023-04-25T22:44:52.931Z,7.78
2023-04-25T22:47:24.648Z,7.76
2023-04-25T22:49:56.121Z,7.72
2023-04-25T22:52:23.964Z,7.69
2023-04-25T22:54:51.625Z,7.65
2023-04-25T22:57:21.342Z,7.64
2023-04-25T22:59:48.983Z,7.61
2023-04-25T23:02:16.603Z,7.57
2023-04-25T23:04:45.726Z,7.52
2023-04-25T23:07:13.581Z,7.50
2023-04-25T23:09:41.811Z,7.45
2023-04-25T23:12:09.893Z,7.39
2023-04-25T23:14:37.492Z,7.36
2023-04-25T23:17:05.210Z,7.31
2023-04-25T23:19:34.371Z,7.26
2023-04-25T23:22:04.203Z,7.24
2023-04-25T23:24:31.836Z,7.20
2023-04-25T23:26:59.529Z,7.20
2023-04-25T23:29:27.069Z,7.19
2023-04-25T23:31:54.832Z,7.19
2023-04-25T23:34:22.525Z,7.19
2023-04-25T23:36:50.263Z,7.14
2023-04-25T23:39:19.797Z,7.10
2023-04-25T23:41:47.381Z,7.10
2023-04-25T23:44:14.995Z,7.06
2023-04-25T23:46:42.714Z,7.02
2023-04-25T23:49:10.384Z,6.96
2023-04-25T23:51:37.937Z,6.91
2023-04-25T23:54:05.641Z,6.84
2023-04-25T23:56:34.716Z,6.80
2023-04-25T23:59:02.278Z,6.76
